createdAt,value
2023-01-27T00:02:05.420Z,45.89
2023-01-27T00:07:06.936Z,46.37
2023-01-27T00:12:19.296Z,45.88
2023-01-27T00:17:20.821Z,45.70
2023-01-27T00:22:22.268Z,46.85
2023-01-27T00:27:23.801Z,45.13
2023-01-27T00:32:25.307Z,45.79
2023-01-27T00:37:26.833Z,46.04
2023-01-27T00:42:28.274Z,45.76
2023-01-27T00:47:29.740Z,46.15
2023-01-27T00:52:31.250Z,45.90
2023-01-27T00:57:32.758Z,46.61
2023-01-27T01:02:34.226Z,46.46
2023-01-27T01:07:36.281Z,46.31
2023-01-27T01:12:37.780Z,46.27
2023-01-27T01:17:39.227Z,46.87
2023-01-27T01:22:40.770Z,47.45
2023-01-27T01:27:44.751Z,46.47
2023-01-27T01:32:46.251Z,46.90
2023-01-27T01:37:48.268Z,47.24
2023-01-27T01:43:01.105Z,47.10
2023-01-27T01:48:05.229Z,47.28
2023-01-27T01:53:08.457Z,47.58
2023-01-27T01:58:12.670Z,46.93
2023-01-27T02:03:14.758Z,46.76
2023-01-27T02:08:28.229Z,47.14
2023-01-27T02:13:29.739Z,46.08
2023-01-27T02:18:32.332Z,45.99
2023-01-27T02:23:55.375Z,46.58
2023-01-27T02:29:11.288Z,46.26
2023-01-27T02:34:16.655Z,46.61
2023-01-27T02:39:22.151Z,46.85
2023-01-27T02:44:23.881Z,47.26
2023-01-27T02:49:25.493Z,46.84
2023-01-27T02:54:29.614Z,47.22
2023-01-27T02:59:31.820Z,46.63
2023-01-27T03:04:33.473Z,47.08
2023-01-27T03:09:35.025Z,46.47
2023-01-27T03:14:36.498Z,47.06
2023-01-27T03:19:37.986Z,47.85
2023-01-27T03:24:39.689Z,47.45
2023-01-27T03:29:41.577Z,47.08
2023-01-27T03:34:43.154Z,47.18
2023-01-27T03:39:52.859Z,46.58
2023-01-27T03:44:54.360Z,46.77
2023-01-27T03:49:55.796Z,46.21
2023-01-27T03:54:57.240Z,46.42
2023-01-27T03:59:58.778Z,45.97
2023-01-27T04:05:00.241Z,46.07
2023-01-27T04:10:02.705Z,46.10
2023-01-27T04:15:04.804Z,45.74
2023-01-27T04:20:06.821Z,45.94
2023-01-27T04:25:11.610Z,45.84
2023-01-27T04:30:14.131Z,46.41
2023-01-27T04:35:15.643Z,45.84
2023-01-27T04:40:17.257Z,46.70
2023-01-27T04:45:18.761Z,46.33
2023-01-27T04:50:20.221Z,46.65
2023-01-27T04:55:21.656Z,46.41
2023-01-27T05:00:23.207Z,47.17
2023-01-27T05:05:25.010Z,47.55
2023-01-27T05:10:26.485Z,47.00
2023-01-27T05:15:29.223Z,47.63
2023-01-27T05:20:30.856Z,48.00
2023-01-27T05:25:32.290Z,47.62
2023-01-27T05:30:33.855Z,47.88
2023-01-27T05:35:35.434Z,47.70
2023-01-27T05:40:36.936Z,47.84
2023-01-27T05:45:38.419Z,47.71
2023-01-27T05:50:39.897Z,48.40
2023-01-27T05:55:43.571Z,48.27
2023-01-27T06:00:45.486Z,48.07
2023-01-27T06:05:55.430Z,47.99
2023-01-27T06:10:58.761Z,47.98
2023-01-27T06:16:02.669Z,47.73
2023-01-27T06:21:06.687Z,48.00
2023-01-27T06:26:10.952Z,49.02
2023-01-27T06:31:20.825Z,48.63
2023-01-27T06:36:22.745Z,48.88
2023-01-27T06:41:24.271Z,49.20
2023-01-27T06:46:26.062Z,49.40
2023-01-27T06:51:27.587Z,49.07
2023-01-27T06:56:29.066Z,49.05
2023-01-27T07:01:30.637Z,49.88
2023-01-27T07:06:32.201Z,49.71
2023-01-27T07:11:33.741Z,49.80
2023-01-27T07:16:35.262Z,49.36
2023-01-27T07:21:36.805Z,49.57
2023-01-27T07:26:38.583Z,49.04
2023-01-27T07:31:40.307Z,48.99
2023-01-27T07:36:41.841Z,49.13
2023-01-27T07:41:43.351Z,49.22
2023-01-27T07:46:49.572Z,48.44
2023-01-27T07:51:51.141Z,48.49
2023-01-27T07:56:52.651Z,47.94
2023-01-27T08:01:54.341Z,48.22
2023-01-27T08:06:55.843Z,48.73
2023-01-27T08:11:57.352Z,48.87
2023-01-27T08:16:58.898Z,49.72
2023-01-27T08:22:00.434Z,50.11
2023-01-27T08:27:01.910Z,49.57
2023-01-27T08:32:03.557Z,49.16
2023-01-27T08:37:06.300Z,49.68
2023-01-27T08:42:07.832Z,49.60
2023-01-27T08:47:09.297Z,49.80
2023-01-27T08:52:10.820Z,49.53
2023-01-27T08:57:12.292Z,49.64
2023-01-27T09:02:13.751Z,49.69
2023-01-27T09:07:15.290Z,49.72
2023-01-27T09:12:16.985Z,49.33
2023-01-27T09:17:18.540Z,49.02
2023-01-27T09:22:20.120Z,48.99
2023-01-27T09:27:37.088Z,49.05
2023-01-27T09:32:41.096Z,49.43
2023-01-27T09:37:56.358Z,48.77
2023-01-27T09:43:19.037Z,49.15
2023-01-27T09:48:39.319Z,48.47
2023-01-27T09:53:53.061Z,48.41
2023-01-27T09:59:33.027Z,48.20
2023-01-27T10:04:59.177Z,48.22
2023-01-27T10:10:13.040Z,47.80
2023-01-27T10:15:43.973Z,47.13
2023-01-27T10:21:21.426Z,47.76
2023-01-27T10:26:42.147Z,47.85
2023-01-27T10:31:53.070Z,47.98
2023-01-27T10:37:06.779Z,47.76
2023-01-27T10:42:17.380Z,47.51
2023-01-27T10:47:40.611Z,47.37
2023-01-27T10:52:56.885Z,46.99
2023-01-27T10:58:03.491Z,47.43
2023-01-27T11:03:12.579Z,46.23
2023-01-27T11:08:25.555Z,46.14
2023-01-27T11:13:30.624Z,45.87
2023-01-27T11:18:36.019Z,46.50
2023-01-27T11:23:43.584Z,46.20
2023-01-27T11:29:16.497Z,46.09
2023-01-27T11:34:55.781Z,45.34
2023-01-27T11:39:57.431Z,44.84
2023-01-27T11:45:00.745Z,45.24
2023-01-27T11:50:04.308Z,45.12
2023-01-27T11:55:16.123Z,45.03
2023-01-27T12:00:38.409Z,45.02
2023-01-27T12:05:48.853Z,45.28
2023-01-27T12:10:50.474Z,44.29
2023-01-27T12:15:58.870Z,44.79
2023-01-27T12:21:04.831Z,45.19
2023-01-27T12:26:11.315Z,44.87
2023-01-27T12:31:12.816Z,45.85
2023-01-27T12:36:17.781Z,45.31
2023-01-27T12:41:31.011Z,45.53
2023-01-27T12:46:32.739Z,45.38
2023-01-27T12:51:41.831Z,45.24
2023-01-27T12:56:43.603Z,45.63
2023-01-27T13:02:01.747Z,45.91
2023-01-27T13:07:12.411Z,46.23
2023-01-27T13:12:34.317Z,45.70
2023-01-27T13:17:53.762Z,46.09
2023-01-27T13:23:05.835Z,46.88
2023-01-27T13:28:08.497Z,47.80
2023-01-27T13:33:30.410Z,46.85
2023-01-27T13:39:06.856Z,47.03
2023-01-27T13:44:38.883Z,47.19
2023-01-27T13:50:07.121Z,47.54
2023-01-27T13:55:14.062Z,47.68
2023-01-27T14:00:54.248Z,47.83
2023-01-27T14:06:07.770Z,47.62
2023-01-27T14:11:12.227Z,47.25
2023-01-27T14:16:25.012Z,47.40
2023-01-27T14:21:48.498Z,47.31
2023-01-27T14:27:12.853Z,48.25
2023-01-27T14:32:33.353Z,47.32
2023-01-27T14:37:53.810Z,47.40
2023-01-27T14:43:06.805Z,47.33
2023-01-27T14:48:20.359Z,47.65
2023-01-27T14:53:36.955Z,47.78
2023-01-27T14:58:55.271Z,47.53
2023-01-27T15:04:23.408Z,47.85
2023-01-27T15:09:40.652Z,46.98
2023-01-27T15:15:21.042Z,47.39
2023-01-27T15:20:33.950Z,47.69
2023-01-27T15:25:50.043Z,47.85
2023-01-27T15:31:15.930Z,48.00
2023-01-27T15:36:27.929Z,48.05
2023-01-27T15:41:29.498Z,48.14
2023-01-27T15:46:36.515Z,48.41
2023-01-27T15:51:38.433Z,48.12
2023-01-27T15:56:48.110Z,48.42
2023-01-27T16:01:59.374Z,48.00
2023-01-27T16:07:04.557Z,47.63
2023-01-27T16:12:24.565Z,47.98
2023-01-27T16:17:26.212Z,47.72
2023-01-27T16:22:32.027Z,47.25
2023-01-27T16:27:47.786Z,47.46
2023-01-27T16:33:14.754Z,47.49
2023-01-27T16:38:20.541Z,47.89
2023-01-27T16:43:33.374Z,48.07
2023-01-27T16:48:44.900Z,47.94
2023-01-27T16:53:52.193Z,48.78
2023-01-27T16:59:01.775Z,49.99
2023-01-27T17:04:19.177Z,49.54
2023-01-27T17:09:25.636Z,50.20
2023-01-27T17:14:32.931Z,49.80
2023-01-27T17:19:36.654Z,49.64
2023-01-27T17:24:45.199Z,49.86
2023-01-27T17:29:49.462Z,49.80
2023-01-27T17:34:53.707Z,49.96
2023-01-27T17:39:59.214Z,49.39
2023-01-27T17:45:22.584Z,49.11
2023-01-27T17:50:27.305Z,49.65
2023-01-27T17:55:30.180Z,49.27
2023-01-27T18:00:38.130Z,49.69
2023-01-27T18:05:44.135Z,49.90
2023-01-27T18:10:46.521Z,49.63
2023-01-27T18:16:02.804Z,49.75
2023-01-27T18:21:04.313Z,49.84
2023-01-27T18:26:15.339Z,50.11
2023-01-27T18:31:24.526Z,50.26
2023-01-27T18:36:30.266Z,49.98
2023-01-27T18:41:31.876Z,49.79
2023-01-27T18:46:33.396Z,49.40
2023-01-27T18:51:34.897Z,49.98
2023-01-27T18:56:36.425Z,50.32
2023-01-27T19:01:38.020Z,49.75
2023-01-27T19:06:39.587Z,49.56
2023-01-27T19:11:41.097Z,48.95
2023-01-27T19:16:42.618Z,49.29
2023-01-27T19:21:44.149Z,49.24
2023-01-27T19:26:45.807Z,48.57
2023-01-27T19:31:47.359Z,48.88
2023-01-27T19:36:48.941Z,48.91
2023-01-27T19:41:50.411Z,48.63
2023-01-27T19:46:51.957Z,49.69
2023-01-27T19:51:53.459Z,49.17
2023-01-27T19:56:54.906Z,49.47
2023-01-27T20:01:56.498Z,49.50
2023-01-27T20:06:58.031Z,49.71
2023-01-27T20:11:59.584Z,49.70
2023-01-27T20:17:01.075Z,49.71
2023-01-27T20:22:02.565Z,49.79
2023-01-27T20:27:04.169Z,49.32
2023-01-27T20:32:05.872Z,49.65
2023-01-27T20:37:07.414Z,49.89
2023-01-27T20:42:09.166Z,50.06
2023-01-27T20:47:13.956Z,49.45
2023-01-27T20:52:15.407Z,49.73
2023-01-27T20:57:16.853Z,49.85
2023-01-27T21:02:18.393Z,49.95
2023-01-27T21:07:21.474Z,49.69
2023-01-27T21:12:22.952Z,49.51
2023-01-27T21:17:24.426Z,49.79
2023-01-27T21:22:25.870Z,49.57
2023-01-27T21:27:27.330Z,49.70
2023-01-27T21:32:28.781Z,49.96
2023-01-27T21:37:30.260Z,50.05
2023-01-27T21:42:31.750Z,49.24
2023-01-27T21:47:33.188Z,49.77
2023-01-27T21:52:38.137Z,49.83
2023-01-27T21:57:40.388Z,49.49
2023-01-27T22:02:42.644Z,49.31
2023-01-27T22:07:44.180Z,48.99
2023-01-27T22:12:46.420Z,49.55
2023-01-27T22:17:48.027Z,49.37
2023-01-27T22:22:49.597Z,49.46
2023-01-27T22:28:00.288Z,49.33
2023-01-27T22:33:01.766Z,49.37
2023-01-27T22:38:03.281Z,49.64
2023-01-27T22:43:04.719Z,49.05
2023-01-27T22:48:06.203Z,49.47
2023-01-27T22:53:07.738Z,49.36
2023-01-27T22:58:09.306Z,49.58
2023-01-27T23:03:10.758Z,49.55
2023-01-27T23:08:12.262Z,49.81
2023-01-27T23:13:14.273Z,49.27
2023-01-27T23:18:15.740Z,49.58
2023-01-27T23:23:18.054Z,49.34
2023-01-27T23:28:19.571Z,49.38
2023-01-27T23:33:21.336Z,49.32
2023-01-27T23:38:32.585Z,49.77
2023-01-27T23:43:35.411Z,50.07
2023-01-27T23:48:36.932Z,50.08
2023-01-27T23:53:38.469Z,50.55
2023-01-27T23:58:39.999Z,50.70
